METAR Data
IDs: Format: Raw Decoded Include TAF

Data at: 0819 UTC 07 Dec 2021

KBOW 070735Z AUTO 00000KT M1/4SM FG OVC002 16/16 A3007 RMK AO2
KBOW 070715Z AUTO 00000KT M1/4SM FG OVC002 16/16 A3008 RMK AO2
KBOW 070655Z AUTO 00000KT M1/4SM FG OVC002 16/15 A3008 RMK AO2
KBOW 070635Z AUTO 00000KT M1/4SM FG OVC001 16/15 A3008 RMK AO2
KBOW 070615Z AUTO 00000KT M1/4SM FG OVC002 16/15 A3008 RMK AO2
KBOW 070555Z AUTO 00000KT 1 1/4SM BR OVC002 14/14 A3008 RMK AO2
KBOW 070515Z AUTO 00000KT 2 1/2SM BR SCT004 14/13 A3010 RMK AO2
KBOW 070455Z AUTO 00000KT 10SM CLR 15/14 A3010 RMK AO2
KBOW 070435Z AUTO 00000KT 10SM CLR 15/14 A3011 RMK AO2
KBOW 070415Z AUTO 25003KT 10SM CLR 16/15 A3012 RMK AO2
KBOW 070355Z AUTO 00000KT 10SM CLR 17/15 A3012 RMK AO2
KBOW 070335Z AUTO 00000KT 10SM CLR 16/15 A3012 RMK AO2
KBOW 070315Z AUTO 00000KT 10SM CLR 16/15 A3012 RMK AO2
KBOW 070255Z AUTO 00000KT 10SM CLR 19/17 A3012 RMK AO2
KBOW 070235Z AUTO 00000KT 10SM CLR 19/16 A3011 RMK AO2
KBOW 070215Z AUTO 00000KT 10SM CLR 20/17 A3012 RMK AO2
KBOW 070155Z AUTO 34003KT 10SM CLR 20/17 A3012 RMK AO2
KBOW 070135Z AUTO 32003KT 10SM CLR 21/17 A3012 RMK AO2
KBOW 070115Z AUTO 32004KT 10SM CLR 21/17 A3012 RMK AO2
KBOW 070055Z AUTO 29004KT 10SM CLR 21/17 A3011 RMK AO2
KBOW 070035Z AUTO 30004KT 10SM CLR 22/17 A3010 RMK AO2
KBOW 070015Z AUTO 30004KT 10SM CLR 22/17 A3010 RMK AO2
KBOW 062355Z AUTO 30004KT 10SM CLR 23/17 A3009 RMK AO2
KBOW 062335Z AUTO 29005KT 10SM CLR 23/16 A3009 RMK AO2
KBOW 062315Z AUTO 29005KT 10SM BKN045 23/16 A3008 RMK AO2
KBOW 062255Z AUTO 30004KT 10SM SCT044 24/16 A3007 RMK AO2
KBOW 062235Z AUTO 28005KT 10SM SCT048 24/16 A3006 RMK AO2
KBOW 062145Z 29006KT 10SM SCT050 26/16 A3005
KBOW 061945Z 26010KT 10SM FEW047 27/16 A3006
KBOW 061850Z 26010KT 10SM FEW030 28/16 A3007
KBOW 061750Z 19006KT 10SM SKC 27/17 A3008
KBOW 061650Z 17008KT 10SM FEW020 26/18 A3012
KBOW 061545Z 15005KT 9SM FEW004 23/21 A3015
KBOW 061445Z 00000KT <1/4SM FG OVC002 19/19 A3017
KBOW 061350Z 00000KT <1/4SM FG OVC002 17/17 A3016
KBOW 061250Z 00000KT 1/4SM FG OVC002 16/15 A3015
KBOW 061215Z AUTO 00000KT M1/4SM FG OVC002 14/14 A3013 RMK AO2
KBOW 061155Z AUTO 00000KT M1/4SM FG OVC002 15/14 A3013 RMK AO2
KBOW 061135Z AUTO 00000KT 1/2SM FG OVC002 15/14 A3013 RMK AO2
KBOW 061115Z AUTO 00000KT M1/4SM FG OVC002 15/15 A3012 RMK AO2
KBOW 061055Z AUTO 00000KT M1/4SM FG OVC002 15/15 A3012 RMK AO2
KBOW 061035Z AUTO 00000KT M1/4SM FG OVC002 15/15 A3012 RMK AO2
KBOW 061015Z AUTO 00000KT M1/4SM FG OVC002 15/15 A3012 RMK AO2
KBOW 060955Z AUTO 00000KT 1/4SM FG OVC002 15/15 A3012 RMK AO2
KBOW 060935Z AUTO 00000KT M1/4SM FG OVC002 15/15 A3012 RMK AO2
KBOW 060915Z AUTO 00000KT M1/4SM FG OVC002 15/15 A3012 RMK AO2
KBOW 060855Z AUTO 00000KT 1 1/2SM BR OVC002 15/15 A3012 RMK AO2 VIS 3/4V5
KBOW 060835Z AUTO 00000KT 10SM OVC002 14/13 A3011 RMK AO2
KBOW 060815Z AUTO 00000KT 9SM BKN002 15/14 A3011 RMK AO2
KBOW 060755Z AUTO 00000KT 10SM SCT003 14/13 A3012 RMK AO2
KBOW 060735Z AUTO 00000KT 10SM CLR 15/13 A3012 RMK AO2
KBOW 060715Z AUTO 00000KT 10SM CLR 16/14 A3013 RMK AO2
KBOW 060655Z AUTO 00000KT 10SM CLR 15/14 A3013 RMK AO2
KBOW 060635Z AUTO 00000KT 10SM CLR 16/15 A3013 RMK AO2
KBOW 060615Z AUTO 00000KT 10SM CLR 15/13 A3014 RMK AO2
KBOW 060555Z AUTO 00000KT 2SM BR CLR 15/14 A3014 RMK AO2 VIS 1 1/2V5
KBOW 060535Z AUTO 00000KT 3SM BR CLR 15/15 A3014 RMK AO2
KBOW 060515Z AUTO 00000KT 10SM CLR 16/15 A3015 RMK AO2
KBOW 060455Z AUTO 00000KT 10SM CLR 16/15 A3015 RMK AO2
KBOW 060435Z AUTO 00000KT 10SM CLR 16/15 A3016 RMK AO2
KBOW 060415Z AUTO 00000KT 10SM CLR 17/16 A3016 RMK AO2
KBOW 060355Z AUTO 00000KT 10SM CLR 16/15 A3016 RMK AO2
KBOW 060335Z AUTO 00000KT 10SM CLR 17/15 A3016 RMK AO2
KBOW 060315Z AUTO 00000KT 10SM CLR 17/16 A3016 RMK AO2
KBOW 060255Z AUTO 00000KT 10SM CLR 18/16 A3016 RMK AO2
KBOW 060235Z AUTO 00000KT 10SM CLR 19/17 A3016 RMK AO2
KBOW 060215Z AUTO 00000KT 10SM CLR 18/16 A3015 RMK AO2
KBOW 060155Z AUTO 10003KT 10SM CLR 18/16 A3014 RMK AO2
KBOW 060135Z AUTO 11004KT 10SM CLR 18/16 A3014 RMK AO2
KBOW 060115Z AUTO 10004KT 10SM CLR 19/16 A3013 RMK AO2
KBOW 060055Z AUTO 09005KT 10SM CLR 19/16 A3013 RMK AO2
KBOW 060035Z AUTO 11004KT 10SM FEW055 FEW065 20/16 A3013 RMK AO2
KBOW 060015Z AUTO 09004KT 10SM CLR 21/16 A3012 RMK AO2
KBOW 052355Z AUTO 09004KT 10SM CLR 21/16 A3012 RMK AO2
KBOW 052335Z AUTO 09005KT 10SM CLR 22/16 A3011 RMK AO2
KBOW 052315Z AUTO 09006KT 10SM CLR 22/16 A3011 RMK AO2
KBOW 052255Z AUTO 09005KT 10SM CLR 22/16 A3011 RMK AO2
KBOW 052235Z AUTO 09006KT 10SM CLR 23/16 A3011 RMK AO2
KBOW 052150Z 08007KT 10SM SKC 25/16 A3010
KBOW 052050Z 12006KT 10SM FEW049 SCT060 25/16 A3010